Terminal Aerodrome Forecast
Issued by NWS

Home | Current Version | Previous Version | Text Only | Print | Product List | Glossary On
Versions: 1 2 3 4 5 6 7 8 9 10 11 12 13 14 15 16 17 18 19
000
FTUS42 KTBW 041100
TAFRSW
TAF
KRSW 041130Z 0412/0512 VRB03KT P6SM SCT250
     FM041500 13008KT P6SM SCT030 SCT250
     FM042200 21006KT P6SM FEW050 SCT250
     FM050300 13004KT P6SM SCT250
     FM050900 13003KT 4SM BR SCT010=

USA.gov is the U.S. government's official web portal to all federal, state and local government web resources and services.